Time;durP1;ratioP1;P1;durP2;ratioP2;P2;SDS_P1;SDS_P2;PMS_P1;PMS_P2;Temp;Humidity;BMP_temperature;BMP_pressure;BME280_temperature;BME280_humidity;BME280_pressure;Samples;Min_cycle;Max_cycle;Signal;HPM_P1;HPM_P2
2023/10/08 00:01:55;;;;;;;3.42;1.20;;;13.20;99.90;;;;;;4949535;28;20314;-74
2023/10/08 00:04:22;;;;;;;2.95;1.20;;;13.20;99.90;;;;;;4945876;29;20212;-74
2023/10/08 00:06:47;;;;;;;0.98;0.73;;;13.20;99.90;;;;;;4952921;28;20222;-74
2023/10/08 00:09:15;;;;;;;3.70;0.98;;;13.20;99.90;;;;;;4953145;28;20248;-73
2023/10/08 00:11:41;;;;;;;2.30;1.13;;;13.20;99.90;;;;;;4949785;28;20171;-74
2023/10/08 00:14:10;;;;;;;3.80;1.00;;;13.20;99.90;;;;;;4951545;28;20697;-74
2023/10/08 00:16:39;;;;;;;2.70;0.90;;;13.20;99.90;;;;;;4950708;28;20257;-74
2023/10/08 00:19:12;;;;;;;0.75;0.70;;;13.20;99.90;;;;;;4950980;28;20211;-74
2023/10/08 00:21:39;;;;;;;1.30;0.90;;;13.10;99.90;;;;;;4949334;28;20662;-74
2023/10/08 00:24:06;;;;;;;2.10;1.00;;;13.20;99.90;;;;;;4952198;28;20195;-74
2023/10/08 00:26:35;;;;;;;2.55;0.80;;;13.20;99.90;;;;;;4951270;29;20211;-75
2023/10/08 00:29:06;;;;;;;5.15;1.02;;;13.10;99.90;;;;;;4952417;28;20207;-74
2023/10/08 00:31:38;;;;;;;3.00;0.73;;;13.10;99.90;;;;;;4949852;28;20211;-75
2023/10/08 00:34:13;;;;;;;2.22;0.80;;;13.10;99.90;;;;;;4961508;28;20716;-74
2023/10/08 00:36:45;;;;;;;2.13;1.38;;;13.00;99.90;;;;;;4947656;28;20217;-75
2023/10/08 00:39:16;;;;;;;2.53;1.00;;;13.00;99.90;;;;;;4947112;28;20183;-74
2023/10/08 00:41:43;;;;;;;4.93;1.20;;;13.00;99.90;;;;;;4962131;28;20211;-74
2023/10/08 00:44:13;;;;;;;2.65;0.65;;;13.00;99.90;;;;;;4959204;28;20612;-74
2023/10/08 00:46:47;;;;;;;2.40;1.10;;;13.00;99.90;;;;;;4961960;28;20215;-74
2023/10/08 00:52:00;;;;;;;4.88;0.77;;;13.00;99.90;;;;;;4949348;28;20203;-75
2023/10/08 00:54:32;;;;;;;2.17;1.13;;;13.00;99.90;;;;;;4935453;28;20650;-75
2023/10/08 00:57:03;;;;;;;1.83;0.82;;;13.00;99.90;;;;;;4948366;29;20180;-74
2023/10/08 00:59:44;;;;;;;3.13;1.40;;;13.00;99.90;;;;;;4949831;29;20207;-75
2023/10/08 01:02:14;;;;;;;1.42;0.85;;;13.00;99.90;;;;;;4950714;28;20697;-73
2023/10/08 01:04:43;;;;;;;1.60;0.73;;;13.00;99.90;;;;;;4950163;29;20215;-75
2023/10/08 01:07:20;;;;;;;1.33;0.60;;;13.00;99.90;;;;;;4952400;28;20222;-74
2023/10/08 01:09:59;;;;;;;4.35;1.00;;;13.00;99.90;;;;;;4943970;28;20226;-73
2023/10/08 01:12:33;;;;;;;3.13;1.00;;;13.00;99.90;;;;;;4928951;28;20200;-74
2023/10/08 01:15:17;;;;;;;0.98;0.60;;;13.00;99.90;;;;;;4932425;29;20210;-73
2023/10/08 01:17:48;;;;;;;1.55;0.65;;;12.90;99.90;;;;;;4927550;29;20607;-74
2023/10/08 01:20:37;;;;;;;0.95;0.47;;;12.90;99.90;;;;;;4931173;29;20243;-73
2023/10/08 01:23:10;;;;;;;2.67;0.85;;;12.90;99.90;;;;;;4930878;29;20227;-73
2023/10/08 01:25:52;;;;;;;4.97;1.00;;;12.90;99.90;;;;;;4940345;28;20211;-73
2023/10/08 01:28:28;;;;;;;1.98;1.10;;;12.90;99.90;;;;;;4952024;28;20211;-72
2023/10/08 01:30:57;;;;;;;3.20;1.60;;;12.90;99.90;;;;;;4950483;28;20257;-70
2023/10/08 01:33:27;;;;;;;1.60;0.85;;;12.90;99.90;;;;;;4948386;28;20217;-71
2023/10/08 01:35:54;;;;;;;4.53;1.00;;;12.90;99.90;;;;;;4932589;29;20192;-72
2023/10/08 01:38:23;;;;;;;2.22;1.17;;;12.80;99.90;;;;;;4947388;28;20211;-74
2023/10/08 01:40:53;;;;;;;3.03;0.88;;;12.80;99.90;;;;;;4951228;28;20321;-73
2023/10/08 01:43:19;;;;;;;3.80;0.90;;;12.90;99.90;;;;;;4949631;28;20214;-74
2023/10/08 01:45:48;;;;;;;2.70;1.00;;;12.90;99.90;;;;;;4942147;29;20640;-74
2023/10/08 01:48:37;;;;;;;1.92;0.82;;;12.90;99.90;;;;;;4931297;28;20192;-73
2023/10/08 01:51:08;;;;;;;2.85;1.40;;;12.90;99.90;;;;;;4950085;29;20673;-73
2023/10/08 01:53:36;;;;;;;3.50;1.48;;;12.90;99.90;;;;;;4932682;28;20223;-73
2023/10/08 01:56:04;;;;;;;4.60;1.50;;;12.80;99.90;;;;;;4942179;29;20210;-73
2023/10/08 01:58:30;;;;;;;6.55;1.00;;;12.90;99.90;;;;;;4949889;28;20315;-73
2023/10/08 02:00:59;;;;;;;3.97;1.50;;;12.90;99.90;;;;;;4950469;28;20246;-72
2023/10/08 02:03:27;;;;;;;2.05;1.30;;;12.90;99.90;;;;;;4949095;28;20645;-72
2023/10/08 02:05:53;;;;;;;3.63;1.40;;;12.90;99.90;;;;;;4952098;28;20246;-71
2023/10/08 02:08:20;;;;;;;5.63;1.50;;;12.90;99.90;;;;;;4945002;28;20209;-73
2023/10/08 02:10:49;;;;;;;4.95;1.67;;;12.90;99.90;;;;;;4948211;28;20772;-73
2023/10/08 02:13:15;;;;;;;5.00;1.58;;;12.80;99.90;;;;;;4950988;28;20249;-73
2023/10/08 02:15:44;;;;;;;2.30;1.48;;;12.80;99.90;;;;;;4947497;29;20705;-73
2023/10/08 02:18:10;;;;;;;3.15;1.60;;;12.80;99.90;;;;;;4942269;28;20270;-70
2023/10/08 02:20:36;;;;;;;5.22;1.70;;;12.80;99.90;;;;;;4949597;28;20628;-73
2023/10/08 02:23:01;;;;;;;3.38;1.52;;;12.80;99.90;;;;;;4947580;28;20274;-73
2023/10/08 02:25:27;;;;;;;6.45;2.50;;;12.80;99.90;;;;;;4950990;28;20203;-73
2023/10/08 02:27:53;;;;;;;4.25;1.50;;;12.70;99.90;;;;;;4952204;28;20749;-70
2023/10/08 02:30:19;;;;;;;3.38;1.73;;;12.70;99.90;;;;;;4953628;28;20215;-73
2023/10/08 02:32:46;;;;;;;5.15;1.83;;;12.80;99.90;;;;;;4953802;28;20707;-73
2023/10/08 02:35:12;;;;;;;5.80;1.90;;;12.70;99.90;;;;;;4951786;28;20724;-73
2023/10/08 02:37:42;;;;;;;3.88;2.03;;;12.70;99.90;;;;;;4939446;28;20212;-71
2023/10/08 02:40:27;;;;;;;7.60;2.20;;;12.70;99.90;;;;;;4939510;28;20727;-73
2023/10/08 02:43:00;;;;;;;4.07;2.13;;;12.70;99.90;;;;;;4950433;28;20237;-70
2023/10/08 02:45:29;;;;;;;5.22;2.03;;;12.70;99.90;;;;;;4951641;28;20179;-73
2023/10/08 02:47:56;;;;;;;4.07;1.73;;;12.70;99.90;;;;;;4953612;28;20202;-72
2023/10/08 02:50:22;;;;;;;4.10;1.70;;;12.70;99.90;;;;;;4951709;28;20266;-73
2023/10/08 02:52:49;;;;;;;5.70;1.92;;;12.70;99.90;;;;;;4954135;28;20215;-73
2023/10/08 02:55:34;;;;;;;2.88;1.38;;;12.70;99.90;;;;;;4953813;28;20222;-73
2023/10/08 02:58:03;;;;;;;4.53;2.03;;;12.70;99.90;;;;;;4949568;29;20218;-74
2023/10/08 03:00:29;;;;;;;2.28;1.52;;;12.70;99.90;;;;;;4944365;28;20194;-72
2023/10/08 03:03:01;;;;;;;3.80;1.33;;;12.70;99.90;;;;;;4933693;29;20270;-72
2023/10/08 03:05:35;;;;;;;3.85;1.83;;;12.70;99.90;;;;;;4933050;29;20569;-73
2023/10/08 03:08:02;;;;;;;6.20;1.70;;;12.70;99.90;;;;;;4933794;29;20225;-73
2023/10/08 03:10:33;;;;;;;4.15;1.30;;;12.70;99.90;;;;;;4930499;29;20211;-73
2023/10/08 03:13:05;;;;;;;7.13;2.30;;;12.70;99.90;;;;;;4934290;29;20698;-73
2023/10/08 03:15:38;;;;;;;4.80;1.92;;;12.70;99.90;;;;;;4933079;29;20180;-73
2023/10/08 03:18:09;;;;;;;2.40;1.40;;;12.70;99.90;;;;;;4934834;29;20188;-71
2023/10/08 03:20:46;;;;;;;3.58;1.70;;;12.70;99.90;;;;;;4931049;29;20211;-72
2023/10/08 03:23:23;;;;;;;4.75;1.75;;;12.60;99.90;;;;;;4930398;29;20248;-73
2023/10/08 03:25:58;;;;;;;5.30;1.65;;;12.60;99.90;;;;;;4946893;28;20218;-74
2023/10/08 03:28:24;;;;;;;5.10;1.73;;;12.70;99.90;;;;;;4949345;28;20705;-74
2023/10/08 03:30:52;;;;;;;10.00;1.85;;;12.70;99.90;;;;;;4951364;29;20211;-74
2023/10/08 03:33:26;;;;;;;3.88;1.25;;;12.70;99.90;;;;;;4950688;28;20214;-73
2023/10/08 03:35:52;;;;;;;4.13;1.95;;;12.70;99.90;;;;;;4953675;28;20181;-74
2023/10/08 03:38:28;;;;;;;4.43;1.73;;;12.70;99.90;;;;;;4951901;28;20226;-74
2023/10/08 03:41:02;;;;;;;2.70;1.40;;;12.70;99.90;;;;;;4947409;28;20922;-72
2023/10/08 03:43:34;;;;;;;2.13;1.52;;;12.60;99.90;;;;;;4950200;28;20215;-73
2023/10/08 03:46:05;;;;;;;4.90;1.48;;;12.60;99.90;;;;;;4952269;28;20219;-74
2023/10/08 03:48:36;;;;;;;4.40;1.48;;;12.60;99.90;;;;;;4950265;28;20180;-74
2023/10/08 03:51:06;;;;;;;3.97;1.40;;;12.60;99.90;;;;;;4953239;28;20179;-76
2023/10/08 03:53:42;;;;;;;3.17;1.50;;;12.60;99.90;;;;;;4951106;28;20257;-76
2023/10/08 03:56:08;;;;;;;4.25;2.22;;;12.60;99.90;;;;;;4952502;28;20273;-73
2023/10/08 03:58:40;;;;;;;2.25;1.52;;;12.60;99.90;;;;;;4952957;28;20292;-74
2023/10/08 04:01:10;;;;;;;5.53;1.95;;;12.60;99.90;;;;;;4953248;28;20215;-74
2023/10/08 04:04:18;;;;;;;3.85;1.88;;;12.60;99.90;;;;;;4952613;28;20223;-73
2023/10/08 04:06:38;;;;;;;4.45;1.55;;;12.60;99.90;;;;;;4945692;28;20187;-72
2023/10/08 04:11:35;;;;;;;2.97;1.77;;;12.60;99.90;;;;;;4932177;28;20211;-72
2023/10/08 04:14:04;;;;;;;3.33;1.77;;;12.60;99.90;;;;;;4942479;28;20246;-73
2023/10/08 04:16:31;;;;;;;6.97;2.65;;;12.60;99.90;;;;;;4952002;28;20694;-74
2023/10/08 04:18:57;;;;;;;3.05;1.95;;;12.50;99.90;;;;;;4948656;28;20215;-73
2023/10/08 04:21:27;;;;;;;4.30;1.55;;;12.60;99.90;;;;;;4951712;28;20262;-74
2023/10/08 04:23:53;;;;;;;3.63;1.98;;;12.50;99.90;;;;;;4947575;28;20233;-72
2023/10/08 04:26:23;;;;;;;4.53;1.70;;;12.50;99.90;;;;;;4952217;28;20298;-74
2023/10/08 04:29:02;;;;;;;3.50;1.33;;;12.40;99.90;;;;;;4948867;28;20210;-73
2023/10/08 04:31:38;;;;;;;8.15;2.20;;;12.40;99.90;;;;;;4948176;28;20207;-74
2023/10/08 04:34:16;;;;;;;2.47;1.40;;;12.30;99.90;;;;;;4949541;28;20219;-73
2023/10/08 04:36:46;;;;;;;7.00;1.65;;;12.40;99.90;;;;;;4950626;28;20262;-73
2023/10/08 04:39:21;;;;;;;10.00;1.75;;;12.40;99.90;;;;;;4948025;28;20245;-72
2023/10/08 04:41:52;;;;;;;5.88;1.65;;;12.40;99.90;;;;;;4944791;28;20262;-75
2023/10/08 04:44:18;;;;;;;5.47;1.55;;;12.40;99.90;;;;;;4956956;28;20744;-74
2023/10/08 04:46:47;;;;;;;4.40;1.98;;;12.30;99.90;;;;;;4943724;28;20211;-74
2023/10/08 04:49:28;;;;;;;7.90;1.70;;;12.30;99.90;;;;;;4932876;29;20734;-73
2023/10/08 04:52:18;;;;;;;3.33;1.67;;;12.30;99.90;;;;;;4932302;29;20215;-73
2023/10/08 04:54:54;;;;;;;3.97;1.58;;;12.30;99.90;;;;;;4927053;29;20211;-73
2023/10/08 04:57:25;;;;;;;6.07;1.90;;;12.20;99.90;;;;;;4930773;29;20639;-75
2023/10/08 04:59:52;;;;;;;6.63;1.63;;;12.20;99.90;;;;;;4930154;29;20176;-75
2023/10/08 05:02:49;;;;;;;6.90;1.60;;;12.10;99.90;;;;;;4931042;29;20223;-74
2023/10/08 05:15:41;;;;;;;3.33;1.50;;;11.90;99.90;;;;;;4934291;28;20648;-74
2023/10/08 05:28:35;;;;;;;5.78;1.85;;;11.80;99.90;;;;;;4944986;28;20208;-74
2023/10/08 05:34:14;;;;;;;7.05;1.88;;;11.80;99.90;;;;;;4945260;28;20221;-74
2023/10/08 05:41:55;;;;;;;5.95;2.13;;;11.90;99.90;;;;;;4931338;29;20286;-74
2023/10/08 05:47:06;;;;;;;3.92;1.65;;;12.00;99.90;;;;;;4931825;29;20298;-74
2023/10/08 05:57:38;;;;;;;3.83;1.60;;;12.30;99.90;;;;;;4933188;29;20678;-72
2023/10/08 06:02:29;;;;;;;8.23;1.65;;;15.00;99.90;;;;;;4948707;28;20289;-74
2023/10/08 06:13:09;;;;;;;3.78;1.17;;;18.20;99.90;;;;;;4932508;29;20223;-75
2023/10/08 06:16:31;;;;;;;3.97;1.25;;;17.60;99.90;;;;;;4933340;29;20741;-75
2023/10/08 06:18:29;;;;;;;9.32;1.70;;;18.60;99.90;;;;;;4926392;28;20243;-74
2023/10/08 06:20:58;;;;;;;4.07;1.60;;;19.80;99.90;;;;;;4935662;29;20220;-74
2023/10/08 06:23:25;;;;;;;4.05;1.58;;;20.20;99.90;;;;;;4933482;29;20219;-74
2023/10/08 06:25:58;;;;;;;4.47;1.67;;;20.50;99.90;;;;;;4935585;29;20222;-75
2023/10/08 06:28:25;;;;;;;3.78;1.65;;;20.60;99.90;;;;;;4931650;29;20211;-75
2023/10/08 06:30:56;;;;;;;6.53;1.23;;;19.20;99.90;;;;;;4926579;29;20650;-75
2023/10/08 06:33:30;;;;;;;5.53;1.50;;;17.80;99.90;;;;;;4934164;29;20227;-74
2023/10/08 06:36:02;;;;;;;3.72;1.58;;;16.80;99.90;;;;;;4931560;29;20834;-74
2023/10/08 06:38:34;;;;;;;2.80;1.30;;;16.20;99.90;;;;;;4952423;28;20757;-75
2023/10/08 06:43:45;;;;;;;5.07;1.20;;;17.20;99.90;;;;;;4953330;28;20645;-75
2023/10/08 06:46:13;;;;;;;3.08;1.17;;;18.00;99.90;;;;;;4948590;28;20702;-75
2023/10/08 06:48:43;;;;;;;2.28;1.23;;;17.90;99.90;;;;;;4950071;28;20227;-75
2023/10/08 06:51:12;;;;;;;2.78;1.30;;;18.30;99.90;;;;;;4949380;28;20251;-75
2023/10/08 06:53:42;;;;;;;2.80;1.10;;;18.50;99.90;;;;;;4931717;29;20211;-75
2023/10/08 06:56:11;;;;;;;2.58;1.25;;;18.70;99.90;;;;;;4934968;28;20204;-75
2023/10/08 06:58:36;;;;;;;2.03;1.02;;;18.90;99.90;;;;;;4933399;28;20242;-75
2023/10/08 07:01:08;;;;;;;1.90;1.17;;;18.50;99.90;;;;;;4934374;28;20667;-75
2023/10/08 07:03:34;;;;;;;3.55;1.55;;;18.30;99.90;;;;;;4925900;29;20696;-75
2023/10/08 07:06:02;;;;;;;1.98;1.23;;;18.00;99.90;;;;;;4935059;29;20188;-74
2023/10/08 07:08:32;;;;;;;5.15;1.10;;;18.20;99.90;;;;;;4930004;28;20218;-74
2023/10/08 07:11:01;;;;;;;3.70;1.20;;;18.10;99.90;;;;;;4933090;29;20207;-74
2023/10/08 07:13:29;;;;;;;2.17;1.25;;;18.70;99.90;;;;;;4932089;28;20235;-73
2023/10/08 07:15:55;;;;;;;4.05;1.50;;;20.10;99.90;;;;;;4934156;28;20211;-73
2023/10/08 07:18:24;;;;;;;4.78;1.63;;;21.00;99.90;;;;;;4932386;28;20188;-75
2023/10/08 07:20:56;;;;;;;12.80;7.53;;;21.70;99.90;;;;;;4931073;29;20258;-75
2023/10/08 07:23:29;;;;;;;12.70;8.00;;;21.40;99.90;;;;;;4934407;28;20690;-72
2023/10/08 07:25:58;;;;;;;5.25;3.22;;;21.20;99.90;;;;;;4934330;28;20211;-74
2023/10/08 07:28:26;;;;;;;3.38;1.30;;;20.80;99.90;;;;;;4934680;29;20283;-75
2023/10/08 07:30:52;;;;;;;5.00;1.70;;;21.10;99.90;;;;;;4928537;29;20741;-73
2023/10/08 07:33:18;;;;;;;2.85;1.17;;;21.60;99.90;;;;;;4934237;28;20295;-74
2023/10/08 07:35:54;;;;;;;1.63;1.15;;;21.80;99.90;;;;;;4931964;29;20196;-74
2023/10/08 07:38:21;;;;;;;3.50;1.20;;;22.10;99.90;;;;;;4933792;28;20698;-74
2023/10/08 07:40:48;;;;;;;3.53;1.90;;;22.10;99.90;;;;;;4932872;29;20279;-73
2023/10/08 07:43:13;;;;;;;4.60;3.13;;;22.40;99.90;;;;;;4932372;29;20241;-75
2023/10/08 07:45:40;;;;;;;6.22;1.38;;;22.90;99.90;;;;;;4934353;28;20219;-73
2023/10/08 07:48:09;;;;;;;2.40;0.93;;;23.00;99.90;;;;;;4934707;29;20657;-73
2023/10/08 07:50:37;;;;;;;1.20;0.85;;;22.90;99.90;;;;;;4930100;28;20267;-73
2023/10/08 07:53:04;;;;;;;2.50;1.40;;;23.00;99.90;;;;;;4931738;28;20746;-73
2023/10/08 07:55:32;;;;;;;4.30;1.23;;;23.10;99.90;;;;;;4931531;29;20604;-71
2023/10/08 07:57:59;;;;;;;2.88;1.20;;;23.20;99.90;;;;;;4928789;29;20251;-72
2023/10/08 08:00:30;;;;;;;3.80;1.45;;;23.00;99.90;;;;;;4932371;28;20619;-73
2023/10/08 08:02:57;;;;;;;2.88;1.00;;;23.30;99.90;;;;;;4931022;29;20729;-73
2023/10/08 08:05:25;;;;;;;2.10;1.02;;;23.50;99.90;;;;;;4932793;29;20207;-76
2023/10/08 08:07:52;;;;;;;3.20;1.88;;;23.90;99.90;;;;;;4933655;28;20207;-75
2023/10/08 08:10:18;;;;;;;2.78;1.33;;;24.10;99.90;;;;;;4932222;29;20288;-74
2023/10/08 08:12:45;;;;;;;4.43;1.45;;;24.20;99.90;;;;;;4927742;29;20223;-73
2023/10/08 08:15:17;;;;;;;1.83;1.30;;;23.70;99.90;;;;;;4933815;29;20238;-72
2023/10/08 08:17:44;;;;;;;2.67;1.52;;;23.70;99.90;;;;;;4932585;29;20200;-73
2023/10/08 08:20:19;;;;;;;1.60;1.20;;;23.70;99.90;;;;;;4932004;28;20234;-75
2023/10/08 08:22:54;;;;;;;1.75;0.70;;;23.20;99.90;;;;;;4932007;28;20359;-73
2023/10/08 08:25:45;;;;;;;2.20;0.52;;;23.20;99.90;;;;;;4931180;29;20228;-73
2023/10/08 08:28:16;;;;;;;1.15;1.00;;;22.90;99.90;;;;;;4931526;28;20231;-73
2023/10/08 08:30:48;;;;;;;3.63;0.70;;;22.70;99.90;;;;;;4931963;29;20215;-75
2023/10/08 08:33:21;;;;;;;3.25;1.30;;;22.50;99.90;;;;;;4931407;28;20267;-75
2023/10/08 08:35:47;;;;;;;2.33;1.40;;;22.40;99.90;;;;;;4951305;29;20214;-73
2023/10/08 08:38:13;;;;;;;0.82;0.60;;;22.20;99.90;;;;;;4950771;28;20253;-74
2023/10/08 08:40:39;;;;;;;1.27;0.75;;;21.90;99.90;;;;;;4950914;28;20292;-73
2023/10/08 08:43:06;;;;;;;2.15;0.82;;;21.60;99.90;;;;;;4951113;28;20273;-71
2023/10/08 08:45:33;;;;;;;2.22;0.60;;;21.50;99.90;;;;;;4952621;28;20546;-73
2023/10/08 08:48:00;;;;;;;1.45;0.52;;;21.30;99.90;;;;;;4951323;29;20333;-73
2023/10/08 08:50:29;;;;;;;0.50;0.47;;;20.60;99.90;;;;;;4952477;28;20595;-74
2023/10/08 08:52:54;;;;;;;1.27;0.60;;;20.60;99.90;;;;;;4952156;28;20317;-72
2023/10/08 08:55:21;;;;;;;1.25;0.60;;;20.70;99.90;;;;;;4950185;29;20354;-73
2023/10/08 08:57:50;;;;;;;0.50;0.43;;;20.80;99.90;;;;;;4948187;28;20223;-75
2023/10/08 09:00:17;;;;;;;1.20;0.60;;;20.60;99.90;;;;;;4951272;28;20175;-75
2023/10/08 09:02:44;;;;;;;3.35;0.50;;;20.60;99.90;;;;;;4930401;29;20690;-74
2023/10/08 09:05:23;;;;;;;0.52;0.40;;;20.80;99.90;;;;;;4946674;29;20294;-75
2023/10/08 09:08:07;;;;;;;1.55;0.77;;;20.90;99.90;;;;;;4950113;28;20633;-76
2023/10/08 09:10:38;;;;;;;1.23;0.80;;;20.90;99.90;;;;;;4952862;28;20210;-73
2023/10/08 09:13:09;;;;;;;5.85;3.83;;;20.40;99.90;;;;;;4951063;28;20210;-74
2023/10/08 09:15:36;;;;;;;3.15;1.67;;;20.30;99.90;;;;;;4948786;28;20219;-74
2023/10/08 09:18:06;;;;;;;1.48;0.90;;;20.40;99.90;;;;;;4930047;29;20178;-76
2023/10/08 09:20:42;;;;;;;0.80;0.73;;;20.70;99.90;;;;;;4949331;28;20297;-73
2023/10/08 09:23:13;;;;;;;0.50;0.50;;;20.50;99.90;;;;;;4950305;28;20214;-73
2023/10/08 09:25:40;;;;;;;1.02;0.40;;;20.40;99.90;;;;;;4938812;28;20215;-72
2023/10/08 09:28:08;;;;;;;0.70;0.55;;;20.40;99.90;;;;;;4938444;29;20210;-78
2023/10/08 09:30:39;;;;;;;1.40;0.50;;;20.40;99.90;;;;;;4952636;28;20210;-74
2023/10/08 09:33:07;;;;;;;0.60;0.40;;;20.70;99.90;;;;;;4950859;28;20222;-75
2023/10/08 09:35:34;;;;;;;1.58;0.52;;;20.40;99.90;;;;;;4951443;28;20219;-76
2023/10/08 09:38:10;;;;;;;1.25;0.50;;;20.10;99.90;;;;;;4938584;28;20215;-76
2023/10/08 09:40:43;;;;;;;0.55;0.40;;;20.30;99.90;;;;;;4932763;29;20294;-75
2023/10/08 09:43:13;;;;;;;0.40;0.40;;;20.00;99.90;;;;;;4939476;28;20222;-76
2023/10/08 09:45:42;;;;;;;0.35;0.32;;;19.90;99.90;;;;;;4955486;28;20225;-75
2023/10/08 09:48:15;;;;;;;1.25;0.50;;;20.10;99.90;;;;;;4951432;29;20217;-76
2023/10/08 09:50:42;;;;;;;0.95;0.70;;;20.00;99.90;;;;;;4954993;28;20222;-75
2023/10/08 09:53:19;;;;;;;0.98;0.50;;;19.90;99.90;;;;;;4954232;28;20265;-77
2023/10/08 09:55:54;;;;;;;1.92;0.50;;;19.70;99.90;;;;;;4943198;28;20220;-76
2023/10/08 09:58:22;;;;;;;1.40;0.60;;;19.80;99.90;;;;;;4945353;28;20206;-75
2023/10/08 10:00:49;;;;;;;1.45;0.57;;;19.90;99.90;;;;;;4954998;28;20223;-76
2023/10/08 10:03:18;;;;;;;1.20;0.77;;;19.60;99.90;;;;;;4952660;28;20241;-75
2023/10/08 10:05:45;;;;;;;1.65;0.60;;;19.50;99.90;;;;;;4951088;29;20670;-75
2023/10/08 10:08:11;;;;;;;0.90;0.50;;;19.40;99.90;;;;;;4953531;28;20302;-74
2023/10/08 10:10:38;;;;;;;1.60;0.80;;;19.30;99.90;;;;;;4954041;28;20226;-75
2023/10/08 10:13:07;;;;;;;0.73;0.30;;;19.30;99.90;;;;;;4952315;28;20222;-75
2023/10/08 10:15:34;;;;;;;1.15;0.55;;;19.30;99.90;;;;;;4952829;28;20235;-76
2023/10/08 10:18:27;;;;;;;0.60;0.45;;;18.80;99.90;;;;;;4935832;29;20180;-77
2023/10/08 10:21:03;;;;;;;0.90;0.47;;;19.00;99.90;;;;;;4954420;28;20211;-76
2023/10/08 10:23:42;;;;;;;1.23;0.60;;;18.60;99.30;;;;;;4953076;28;20226;-75
2023/10/08 10:26:34;;;;;;;0.90;0.30;;;18.80;99.90;;;;;;4938424;28;20294;-75
2023/10/08 10:29:15;;;;;;;2.08;0.40;;;18.80;99.90;;;;;;4948216;28;20306;-77
2023/10/08 10:31:56;;;;;;;1.40;0.52;;;18.90;99.90;;;;;;4948542;28;20210;-76
2023/10/08 10:34:27;;;;;;;0.68;0.43;;;19.10;99.90;;;;;;4950334;29;20273;-76
2023/10/08 10:40:00;;;;;;;5.13;2.63;;;19.60;99.90;;;;;;4942376;28;20219;-75
2023/10/08 10:42:28;;;;;;;1.35;0.90;;;19.70;99.90;;;;;;4966588;28;20210;-75
2023/10/08 10:44:55;;;;;;;2.72;0.77;;;19.70;98.70;;;;;;4953769;28;20217;-73
2023/10/08 10:50:16;;;;;;;1.27;0.68;;;19.80;97.20;;;;;;4954664;28;20215;-77
2023/10/08 10:52:53;;;;;;;2.13;0.80;;;19.80;98.20;;;;;;4952712;28;20215;-75
2023/10/08 10:55:31;;;;;;;1.35;0.95;;;19.70;98.60;;;;;;4944770;28;20207;-76
2023/10/08 10:58:04;;;;;;;0.90;0.73;;;19.80;98.70;;;;;;4938544;29;20622;-75
2023/10/08 11:03:02;;;;;;;9.23;3.83;;;19.60;97.00;;;;;;4954728;28;20211;-74
2023/10/08 11:05:36;;;;;;;4.47;2.40;;;19.60;98.50;;;;;;4953101;28;20261;-74
2023/10/08 11:08:06;;;;;;;2.58;0.63;;;19.50;95.70;;;;;;4949903;28;20203;-75
2023/10/08 11:10:33;;;;;;;0.57;0.50;;;19.50;97.20;;;;;;4950492;28;20245;-76
2023/10/08 11:13:02;;;;;;;1.35;0.85;;;19.70;96.90;;;;;;4950299;28;20779;-75
2023/10/08 11:15:37;;;;;;;1.13;0.40;;;19.50;96.50;;;;;;4949113;28;20179;-75
2023/10/08 11:18:10;;;;;;;1.83;0.60;;;19.60;97.20;;;;;;4952396;29;20215;-74
2023/10/08 11:20:39;;;;;;;0.85;0.40;;;19.50;97.80;;;;;;4953167;28;20203;-76
2023/10/08 11:23:21;;;;;;;1.25;0.63;;;19.50;96.90;;;;;;4952346;28;20594;-75
2023/10/08 11:25:55;;;;;;;1.02;0.43;;;19.50;96.80;;;;;;4941751;28;20211;-74
2023/10/08 11:28:21;;;;;;;1.40;0.80;;;19.40;96.00;;;;;;4940724;28;20211;-74
2023/10/08 11:30:51;;;;;;;0.80;0.63;;;19.40;96.00;;;;;;4951087;28;20298;-75
2023/10/08 11:33:17;;;;;;;1.40;0.70;;;19.50;97.00;;;;;;4952108;28;20203;-75
2023/10/08 11:35:59;;;;;;;1.00;0.43;;;19.30;96.40;;;;;;4933677;29;20198;-75
2023/10/08 11:38:25;;;;;;;1.30;0.50;;;19.50;96.30;;;;;;4931307;28;20207;-76
2023/10/08 11:40:56;;;;;;;3.05;1.30;;;19.20;96.80;;;;;;4945190;28;20301;-75
2023/10/08 11:43:23;;;;;;;1.30;0.88;;;19.40;97.10;;;;;;4952034;28;20238;-75
2023/10/08 11:45:48;;;;;;;2.53;1.08;;;19.20;96.50;;;;;;4953822;28;20211;-76
2023/10/08 11:48:17;;;;;;;1.55;0.47;;;19.50;97.20;;;;;;4953610;28;20246;-75
2023/10/08 11:50:43;;;;;;;0.45;0.45;;;19.50;96.20;;;;;;4954223;28;20682;-75
2023/10/08 11:53:11;;;;;;;0.47;0.35;;;19.60;97.00;;;;;;4953265;28;20305;-76
2023/10/08 11:55:38;;;;;;;1.05;0.55;;;19.40;95.60;;;;;;4939698;28;20211;-74
2023/10/08 11:58:11;;;;;;;0.60;0.47;;;19.40;94.90;;;;;;4939346;28;20589;-74
2023/10/08 12:00:44;;;;;;;1.48;0.32;;;19.50;94.60;;;;;;4952204;28;20218;-74
2023/10/08 12:03:18;;;;;;;1.58;0.75;;;19.70;95.50;;;;;;4950058;28;20760;-74
2023/10/08 12:05:47;;;;;;;2.47;0.98;;;19.80;95.00;;;;;;4933970;29;20220;-75
2023/10/08 12:08:18;;;;;;;4.18;1.30;;;19.90;95.10;;;;;;4947066;29;20213;-75
2023/10/08 12:10:45;;;;;;;1.75;1.13;;;20.10;94.90;;;;;;4949745;28;20215;-74
2023/10/08 12:13:11;;;;;;;2.25;1.60;;;20.20;94.60;;;;;;4941385;28;20227;-74
2023/10/08 12:15:41;;;;;;;0.75;0.50;;;20.30;95.00;;;;;;4933267;29;21179;-75
2023/10/08 12:18:24;;;;;;;0.57;0.50;;;20.50;93.90;;;;;;4932180;29;20176;-75
2023/10/08 12:20:50;;;;;;;1.10;0.50;;;20.40;92.70;;;;;;4931033;29;20216;-74
2023/10/08 12:23:25;;;;;;;0.85;0.50;;;19.80;92.80;;;;;;4938781;28;20219;-74
2023/10/08 12:25:55;;;;;;;0.93;0.40;;;19.50;93.60;;;;;;4946621;28;20282;-74
2023/10/08 12:28:24;;;;;;;0.95;0.50;;;19.40;93.80;;;;;;4952814;28;20218;-75
2023/10/08 12:30:53;;;;;;;1.45;0.82;;;19.50;94.80;;;;;;4950697;28;20225;-74
2023/10/08 12:33:20;;;;;;;3.90;2.10;;;19.30;95.20;;;;;;4952353;28;20285;-75
2023/10/08 12:35:47;;;;;;;5.13;1.67;;;19.30;94.80;;;;;;4951205;29;20696;-74
2023/10/08 12:38:14;;;;;;;1.17;0.60;;;19.30;95.70;;;;;;4949188;28;20237;-74
2023/10/08 12:41:13;;;;;;;1.73;0.52;;;19.10;95.00;;;;;;4951413;28;20242;-75
2023/10/08 12:43:32;;;;;;;0.82;0.40;;;19.00;95.20;;;;;;4946663;28;20576;-74
2023/10/08 12:45:57;;;;;;;0.70;0.40;;;19.00;94.70;;;;;;4951748;28;20218;-73
2023/10/08 12:48:27;;;;;;;3.05;0.50;;;19.00;94.80;;;;;;4950830;28;20274;-74
2023/10/08 12:50:57;;;;;;;0.80;0.45;;;19.00;95.10;;;;;;4950956;29;20210;-73
2023/10/08 12:53:33;;;;;;;0.57;0.50;;;19.10;95.10;;;;;;4933022;29;20223;-75
2023/10/08 12:56:06;;;;;;;2.08;0.77;;;18.90;94.60;;;;;;4928493;29;20213;-74
2023/10/08 12:58:41;;;;;;;1.30;0.70;;;19.00;94.60;;;;;;4930220;29;20738;-75
2023/10/08 13:01:19;;;;;;;1.17;0.40;;;19.10;95.50;;;;;;4929622;29;20219;-74
2023/10/08 13:03:49;;;;;;;0.57;0.43;;;18.90;94.70;;;;;;4933540;28;20313;-75
2023/10/08 13:06:22;;;;;;;0.43;0.40;;;18.80;95.30;;;;;;4951882;28;20187;-75
2023/10/08 13:08:52;;;;;;;0.95;0.50;;;18.90;95.40;;;;;;4951668;28;20642;-75
2023/10/08 13:11:23;;;;;;;1.58;0.60;;;18.90;94.40;;;;;;4945661;28;20374;-74
2023/10/08 13:13:53;;;;;;;2.03;1.27;;;18.80;94.10;;;;;;4953291;28;20239;-75
2023/10/08 13:16:21;;;;;;;1.48;0.80;;;18.70;94.60;;;;;;4940058;28;20319;-76
2023/10/08 13:18:48;;;;;;;1.75;0.80;;;18.60;94.90;;;;;;4949452;29;20241;-76
2023/10/08 13:21:13;;;;;;;2.85;0.80;;;18.60;95.60;;;;;;4950085;28;20281;-73
2023/10/08 13:23:39;;;;;;;0.30;0.20;;;18.70;96.20;;;;;;4950601;28;20342;-75
2023/10/08 13:26:07;;;;;;;0.90;0.50;;;18.60;95.80;;;;;;4951978;28;20257;-75
2023/10/08 13:28:36;;;;;;;1.17;0.55;;;18.60;95.50;;;;;;4951996;28;20199;-75
2023/10/08 13:31:09;;;;;;;1.58;0.70;;;18.40;95.50;;;;;;4947304;28;20294;-74
2023/10/08 13:33:42;;;;;;;1.30;0.90;;;18.20;96.40;;;;;;4950772;28;20724;-75
2023/10/08 13:36:13;;;;;;;1.05;0.93;;;17.90;97.20;;;;;;4951177;28;20183;-75
2023/10/08 13:38:40;;;;;;;2.45;1.17;;;18.00;98.70;;;;;;4931495;29;20252;-75
2023/10/08 13:41:14;;;;;;;1.35;0.90;;;17.90;97.70;;;;;;4932289;28;20215;-75
2023/10/08 13:43:45;;;;;;;0.43;0.40;;;18.00;98.20;;;;;;4927760;28;20843;-75
2023/10/08 13:46:14;;;;;;;1.30;0.55;;;18.00;97.50;;;;;;4939994;28;20230;-72
2023/10/08 13:48:41;;;;;;;2.22;0.90;;;18.00;97.90;;;;;;4950373;28;20717;-76
2023/10/08 13:51:13;;;;;;;1.08;0.80;;;17.90;96.90;;;;;;4960376;28;20187;-75
2023/10/08 13:53:45;;;;;;;1.17;0.40;;;17.90;96.80;;;;;;4960486;28;20226;-74
2023/10/08 13:56:11;;;;;;;0.55;0.50;;;17.80;97.00;;;;;;4959989;28;20210;-75
2023/10/08 13:58:45;;;;;;;0.65;0.60;;;17.90;97.00;;;;;;4941912;28;20216;-75
2023/10/08 14:01:21;;;;;;;1.88;0.57;;;17.90;97.30;;;;;;4931873;29;20640;-74
2023/10/08 14:03:53;;;;;;;1.08;0.43;;;17.70;97.20;;;;;;4930742;29;20319;-76
2023/10/08 14:06:20;;;;;;;1.48;0.80;;;17.50;97.40;;;;;;4931363;29;20179;-75
2023/10/08 14:08:55;;;;;;;0.85;0.40;;;17.60;98.30;;;;;;4933026;29;20271;-75
2023/10/08 14:11:24;;;;;;;0.73;0.50;;;17.60;98.80;;;;;;4929296;29;20208;-75